sensor_id;sensor_type;location;lat;lon;timestamp;pressure;altitude;pressure_sealevel;temperature;humidity
71974;BME280;59840;52.122;5.404;2024-01-30T00:04:54;102739.06;;;6.57;100.00
71974;BME280;59840;52.122;5.404;2024-01-30T00:07:21;102742.69;;;6.56;100.00
71974;BME280;59840;52.122;5.404;2024-01-30T00:09:47;102743.19;;;6.51;100.00
71974;BME280;59840;52.122;5.404;2024-01-30T00:12:14;102748.59;;;6.50;100.00
71974;BME280;59840;52.122;5.404;2024-01-30T00:14:42;102744.19;;;6.50;100.00
71974;BME280;59840;52.122;5.404;2024-01-30T00:17:09;102737.94;;;6.51;100.00
71974;BME280;59840;52.122;5.404;2024-01-30T00:19:36;102744.81;;;6.52;100.00
71974;BME280;59840;52.122;5.404;2024-01-30T00:22:03;102745.00;;;6.51;100.00
71974;BME280;59840;52.122;5.404;2024-01-30T00:24:30;102743.19;;;6.51;100.00
71974;BME280;59840;52.122;5.404;2024-01-30T00:26:56;102745.00;;;6.51;100.00
71974;BME280;59840;52.122;5.404;2024-01-30T00:29:24;102732.03;;;6.49;100.00
71974;BME280;59840;52.122;5.404;2024-01-30T00:31:52;102735.66;;;6.48;100.00
71974;BME280;59840;52.122;5.404;2024-01-30T00:34:19;102739.25;;;6.47;100.00
71974;BME280;59840;52.122;5.404;2024-01-30T00:36:45;102735.19;;;6.45;100.00
71974;BME280;59840;52.122;5.404;2024-01-30T00:39:12;102731.75;;;6.44;100.00
71974;BME280;59840;52.122;5.404;2024-01-30T00:41:38;102736.00;;;6.45;100.00
71974;BME280;59840;52.122;5.404;2024-01-30T00:44:05;102727.47;;;6.43;100.00
71974;BME280;59840;52.122;5.404;2024-01-30T00:46:32;102728.47;;;6.42;100.00
71974;BME280;59840;52.122;5.404;2024-01-30T00:48:58;102725.19;;;6.40;100.00
71974;BME280;59840;52.122;5.404;2024-01-30T00:51:25;102729.78;;;6.38;100.00
71974;BME280;59840;52.122;5.404;2024-01-30T00:53:51;102728.16;;;6.37;100.00
71974;BME280;59840;52.122;5.404;2024-01-30T00:56:18;102738.66;;;6.37;100.00
71974;BME280;59840;52.122;5.404;2024-01-30T00:58:45;102733.72;;;6.34;100.00
71974;BME280;59840;52.122;5.404;2024-01-30T01:01:12;102732.91;;;6.33;100.00
71974;BME280;59840;52.122;5.404;2024-01-30T01:03:39;102729.97;;;6.28;100.00
71974;BME280;59840;52.122;5.404;2024-01-30T01:06:07;102732.94;;;6.25;100.00
71974;BME280;59840;52.122;5.404;2024-01-30T01:08:34;102730.19;;;6.19;100.00
71974;BME280;59840;52.122;5.404;2024-01-30T01:11:00;102729.06;;;6.13;100.00
71974;BME280;59840;52.122;5.404;2024-01-30T01:13:27;102725.97;;;6.10;100.00
71974;BME280;59840;52.122;5.404;2024-01-30T01:15:53;102720.06;;;6.08;100.00
71974;BME280;59840;52.122;5.404;2024-01-30T01:18:20;102722.53;;;6.09;100.00
71974;BME280;59840;52.122;5.404;2024-01-30T01:20:51;102725.31;;;6.08;100.00
71974;BME280;59840;52.122;5.404;2024-01-30T01:23:18;102712.72;;;6.03;100.00
71974;BME280;59840;52.122;5.404;2024-01-30T01:25:45;102706.81;;;6.01;100.00
71974;BME280;59840;52.122;5.404;2024-01-30T01:28:11;102697.97;;;6.02;100.00
71974;BME280;59840;52.122;5.404;2024-01-30T01:30:38;102689.13;;;6.03;100.00
71974;BME280;59840;52.122;5.404;2024-01-30T01:33:05;102699.78;;;6.01;100.00
71974;BME280;59840;52.122;5.404;2024-01-30T01:35:33;102703.22;;;6.02;100.00
71974;BME280;59840;52.122;5.404;2024-01-30T01:38:00;102695.50;;;6.00;100.00
71974;BME280;59840;52.122;5.404;2024-01-30T01:40:27;102695.50;;;6.00;100.00
71974;BME280;59840;52.122;5.404;2024-01-30T01:42:56;102689.47;;;6.00;100.00
71974;BME280;59840;52.122;5.404;2024-01-30T01:45:22;102701.56;;;6.01;100.00
71974;BME280;59840;52.122;5.404;2024-01-30T01:47:51;102692.91;;;6.00;100.00
71974;BME280;59840;52.122;5.404;2024-01-30T01:50:19;102707.63;;;6.01;100.00
71974;BME280;59840;52.122;5.404;2024-01-30T01:52:50;102702.72;;;5.98;100.00
71974;BME280;59840;52.122;5.404;2024-01-30T01:55:18;102700.28;;;5.97;100.00
71974;BME280;59840;52.122;5.404;2024-01-30T01:57:48;102695.38;;;5.94;100.00
71974;BME280;59840;52.122;5.404;2024-01-30T02:00:15;102697.16;;;5.93;100.00
71974;BME280;59840;52.122;5.404;2024-01-30T02:02:43;102703.56;;;5.91;100.00
71974;BME280;59840;52.122;5.404;2024-01-30T02:05:10;102699.47;;;5.80;100.00
71974;BME280;59840;52.122;5.404;2024-01-30T02:07:37;102691.97;;;5.69;100.00
71974;BME280;59840;52.122;5.404;2024-01-30T02:10:04;102690.31;;;5.68;100.00
71974;BME280;59840;52.122;5.404;2024-01-30T02:12:31;102691.31;;;5.59;100.00
71974;BME280;59840;52.122;5.404;2024-01-30T02:14:57;102691.00;;;5.54;100.00
71974;BME280;59840;52.122;5.404;2024-01-30T02:17:24;102683.81;;;5.48;100.00
71974;BME280;59840;52.122;5.404;2024-01-30T02:19:51;102690.34;;;5.44;100.00
71974;BME280;59840;52.122;5.404;2024-01-30T02:22:19;102691.16;;;5.36;100.00
71974;BME280;59840;52.122;5.404;2024-01-30T02:24:46;102685.94;;;5.36;100.00
71974;BME280;59840;52.122;5.404;2024-01-30T02:27:13;102688.06;;;5.41;100.00
71974;BME280;59840;52.122;5.404;2024-01-30T02:29:39;102693.31;;;5.41;100.00
71974;BME280;59840;52.122;5.404;2024-01-30T02:32:06;102699.84;;;5.45;100.00
71974;BME280;59840;52.122;5.404;2024-01-30T02:34:33;102701.81;;;5.51;100.00
71974;BME280;59840;52.122;5.404;2024-01-30T02:37:00;102699.19;;;5.51;100.00
71974;BME280;59840;52.122;5.404;2024-01-30T02:39:27;102697.69;;;5.56;100.00
71974;BME280;59840;52.122;5.404;2024-01-30T02:41:54;102695.06;;;5.64;100.00
71974;BME280;59840;52.122;5.404;2024-01-30T02:44:21;102691.97;;;5.69;100.00
71974;BME280;59840;52.122;5.404;2024-01-30T02:46:47;102696.88;;;5.64;100.00
71974;BME280;59840;52.122;5.404;2024-01-30T02:49:14;102693.63;;;5.54;100.00
71974;BME280;59840;52.122;5.404;2024-01-30T02:51:41;102679.56;;;5.47;100.00
71974;BME280;59840;52.122;5.404;2024-01-30T02:54:07;102673.34;;;5.39;100.00
71974;BME280;59840;52.122;5.404;2024-01-30T02:56:34;102680.69;;;5.36;100.00
71974;BME280;59840;52.122;5.404;2024-01-30T02:59:00;102671.53;;;5.40;100.00
71974;BME280;59840;52.122;5.404;2024-01-30T03:01:27;102674.31;;;5.47;100.00
71974;BME280;59840;52.122;5.404;2024-01-30T03:03:53;102673.50;;;5.54;100.00
71974;BME280;59840;52.122;5.404;2024-01-30T03:06:20;102667.56;;;5.60;100.00
71974;BME280;59840;52.122;5.404;2024-01-30T03:08:48;102669.38;;;5.68;100.00
71974;BME280;59840;52.122;5.404;2024-01-30T03:11:14;102665.28;;;5.73;100.00
71974;BME280;59840;52.122;5.404;2024-01-30T03:13:41;102664.13;;;5.76;100.00
71974;BME280;59840;52.122;5.404;2024-01-30T03:16:08;102656.59;;;5.81;100.00
71974;BME280;59840;52.122;5.404;2024-01-30T03:18:35;102647.41;;;5.85;100.00
71974;BME280;59840;52.122;5.404;2024-01-30T03:21:01;102646.09;;;5.89;100.00
71974;BME280;59840;52.122;5.404;2024-01-30T03:23:28;102642.16;;;5.93;100.00
71974;BME280;59840;52.122;5.404;2024-01-30T03:25:54;102645.41;;;5.95;100.00
71974;BME280;59840;52.122;5.404;2024-01-30T03:28:21;102649.50;;;5.98;100.00
71974;BME280;59840;52.122;5.404;2024-01-30T03:30:47;102650.16;;;6.00;100.00
71974;BME280;59840;52.122;5.404;2024-01-30T03:33:14;102652.59;;;6.01;100.00
71974;BME280;59840;52.122;5.404;2024-01-30T03:35:41;102652.44;;;6.03;100.00
71974;BME280;59840;52.122;5.404;2024-01-30T03:38:07;102656.53;;;6.05;100.00
71974;BME280;59840;52.122;5.404;2024-01-30T03:40:34;102646.03;;;6.05;100.00
71974;BME280;59840;52.122;5.404;2024-01-30T03:43:00;102637.84;;;6.09;100.00
71974;BME280;59840;52.122;5.404;2024-01-30T03:45:27;102637.84;;;6.09;100.00
71974;BME280;59840;52.122;5.404;2024-01-30T03:47:53;102639.47;;;6.10;100.00
71974;BME280;59840;52.122;5.404;2024-01-30T03:50:20;102633.25;;;6.11;100.00
71974;BME280;59840;52.122;5.404;2024-01-30T03:52:47;102635.69;;;6.12;100.00
71974;BME280;59840;52.122;5.404;2024-01-30T03:55:13;102629.66;;;6.12;100.00
71974;BME280;59840;52.122;5.404;2024-01-30T03:57:40;102627.66;;;6.14;100.00
71974;BME280;59840;52.122;5.404;2024-01-30T04:00:07;102621.28;;;6.16;100.00
71974;BME280;59840;52.122;5.404;2024-01-30T04:02:34;102635.03;;;6.18;100.00
71974;BME280;59840;52.122;5.404;2024-01-30T04:05:01;102636.50;;;6.21;100.00
71974;BME280;59840;52.122;5.404;2024-01-30T04:07:28;102632.88;;;6.22;100.00
71974;BME280;59840;52.122;5.404;2024-01-30T04:09:55;102640.38;;;6.25;100.00
71974;BME280;59840;52.122;5.404;2024-01-30T04:12:22;102639.38;;;6.26;100.00
71974;BME280;59840;52.122;5.404;2024-01-30T04:14:48;102636.44;;;6.29;100.00
71974;BME280;59840;52.122;5.404;2024-01-30T04:17:15;102649.19;;;6.32;100.00
71974;BME280;59840;52.122;5.404;2024-01-30T04:19:42;102645.75;;;6.31;100.00
71974;BME280;59840;52.122;5.404;2024-01-30T04:22:08;102642.16;;;6.32;100.00
71974;BME280;59840;52.122;5.404;2024-01-30T04:24:35;102640.97;;;6.35;100.00
71974;BME280;59840;52.122;5.404;2024-01-30T04:27:01;102626.88;;;6.36;100.00
71974;BME280;59840;52.122;5.404;2024-01-30T04:29:28;102626.72;;;6.37;100.00
71974;BME280;59840;52.122;5.404;2024-01-30T04:31:55;102624.91;;;6.38;100.00
71974;BME280;59840;52.122;5.404;2024-01-30T04:34:21;102614.09;;;6.41;100.00
71974;BME280;59840;52.122;5.404;2024-01-30T04:36:48;102617.34;;;6.43;100.00
71974;BME280;59840;52.122;5.404;2024-01-30T04:39:15;102605.69;;;6.46;100.00
71974;BME280;59840;52.122;5.404;2024-01-30T04:41:41;102601.91;;;6.48;100.00
71974;BME280;59840;52.122;5.404;2024-01-30T04:44:08;102617.47;;;6.50;100.00
71974;BME280;59840;52.122;5.404;2024-01-30T04:46:34;102597.97;;;6.52;100.00
71974;BME280;59840;52.122;5.404;2024-01-30T04:49:01;102597.78;;;6.54;100.00
71974;BME280;59840;52.122;5.404;2024-01-30T04:51:27;102607.94;;;6.57;100.00
71974;BME280;59840;52.122;5.404;2024-01-30T04:53:55;102608.75;;;6.57;100.00
71974;BME280;59840;52.122;5.404;2024-01-30T04:56:21;102605.13;;;6.58;100.00
71974;BME280;59840;52.122;5.404;2024-01-30T04:58:48;102607.56;;;6.60;100.00
71974;BME280;59840;52.122;5.404;2024-01-30T05:01:15;102615.25;;;6.61;100.00
71974;BME280;59840;52.122;5.404;2024-01-30T05:03:43;102605.56;;;6.62;100.00
71974;BME280;59840;52.122;5.404;2024-01-30T05:06:09;102610.00;;;6.61;100.00
71974;BME280;59840;52.122;5.404;2024-01-30T05:08:36;102608.03;;;6.63;100.00
71974;BME280;59840;52.122;5.404;2024-01-30T05:11:05;102614.91;;;6.64;100.00
71974;BME280;59840;52.122;5.404;2024-01-30T05:13:32;102603.25;;;6.67;100.00
71974;BME280;59840;52.122;5.404;2024-01-30T05:16:01;102607.34;;;6.69;100.00
71974;BME280;59840;52.122;5.404;2024-01-30T05:18:28;102614.22;;;6.70;100.00
71974;BME280;59840;52.122;5.404;2024-01-30T05:20:55;102603.19;;;6.75;100.00
71974;BME280;59840;52.122;5.404;2024-01-30T05:23:21;102594.16;;;6.78;100.00
71974;BME280;59840;52.122;5.404;2024-01-30T05:25:48;102600.06;;;6.80;100.00
71974;BME280;59840;52.122;5.404;2024-01-30T05:28:15;102594.09;;;6.86;100.00
71974;BME280;59840;52.122;5.404;2024-01-30T05:30:41;102599.66;;;6.91;100.00
71974;BME280;59840;52.122;5.404;2024-01-30T05:33:08;102580.91;;;6.94;100.00
71974;BME280;59840;52.122;5.404;2024-01-30T05:35:36;102579.56;;;6.98;100.00
71974;BME280;59840;52.122;5.404;2024-01-30T05:38:03;102575.94;;;6.99;100.00
71974;BME280;59840;52.122;5.404;2024-01-30T05:40:30;102588.06;;;7.00;100.00
71974;BME280;59840;52.122;5.404;2024-01-30T05:42:57;102594.94;;;7.01;100.00
71974;BME280;59840;52.122;5.404;2024-01-30T05:49:16;102590.97;;;7.05;100.00
71974;BME280;59840;52.122;5.404;2024-01-30T05:55:40;102596.69;;;7.09;100.00
71974;BME280;59840;52.122;5.404;2024-01-30T05:58:07;102600.94;;;7.10;100.00
71974;BME280;59840;52.122;5.404;2024-01-30T06:00:33;102597.50;;;7.09;100.00
71974;BME280;59840;52.122;5.404;2024-01-30T06:03:03;102604.38;;;7.10;100.00
71974;BME280;59840;52.122;5.404;2024-01-30T06:09:10;102604.03;;;7.13;100.00
71974;BME280;59840;52.122;5.404;2024-01-30T06:11:39;102609.75;;;7.17;100.00
71974;BME280;59840;52.122;5.404;2024-01-30T06:14:05;102598.44;;;7.16;100.00
71974;BME280;59840;52.122;5.404;2024-01-30T06:16:32;102605.31;;;7.17;100.00
71974;BME280;59840;52.122;5.404;2024-01-30T06:18:59;102602.06;;;7.15;100.00
71974;BME280;59840;52.122;5.404;2024-01-30T06:21:26;102608.94;;;7.16;100.00
71974;BME280;59840;52.122;5.404;2024-01-30T06:23:53;102600.06;;;7.17;100.00
71974;BME280;59840;52.122;5.404;2024-01-30T06:34:21;102610.84;;;7.22;100.00
71974;BME280;59840;52.122;5.404;2024-01-30T06:40:31;102611.50;;;7.24;100.00
71974;BME280;59840;52.122;5.404;2024-01-30T06:42:58;102615.94;;;7.24;100.00
71974;BME280;59840;52.122;5.404;2024-01-30T06:45:25;102616.75;;;7.24;100.00
71974;BME280;59840;52.122;5.404;2024-01-30T06:47:51;102619.38;;;7.24;100.00
71974;BME280;59840;52.122;5.404;2024-01-30T06:50:18;102613.28;;;7.24;100.00
71974;BME280;59840;52.122;5.404;2024-01-30T06:52:44;102617.72;;;7.23;100.00
71974;BME280;59840;52.122;5.404;2024-01-30T06:55:11;102611.31;;;7.26;100.00
71974;BME280;59840;52.122;5.404;2024-01-30T06:57:38;102621.44;;;7.29;100.00
71974;BME280;59840;52.122;5.404;2024-01-30T07:00:05;102618.00;;;7.28;100.00
71974;BME280;59840;52.122;5.404;2024-01-30T07:02:31;102622.41;;;7.28;100.00
71974;BME280;59840;52.122;5.404;2024-01-30T07:04:58;102623.44;;;7.27;100.00
71974;BME280;59840;52.122;5.404;2024-01-30T07:07:25;102623.88;;;7.30;100.00
71974;BME280;59840;52.122;5.404;2024-01-30T07:09:52;102622.25;;;7.29;100.00
71974;BME280;59840;52.122;5.404;2024-01-30T07:12:23;102617.16;;;7.28;100.00
71974;BME280;59840;52.122;5.404;2024-01-30T07:14:51;102616.19;;;7.29;100.00
71974;BME280;59840;52.122;5.404;2024-01-30T07:17:18;102627.13;;;7.32;100.00
71974;BME280;59840;52.122;5.404;2024-01-30T07:19:45;102626.16;;;7.33;100.00
71974;BME280;59840;52.122;5.404;2024-01-30T07:22:11;102626.16;;;7.33;100.00
71974;BME280;59840;52.122;5.404;2024-01-30T07:24:42;102627.13;;;7.32;100.00
71974;BME280;59840;52.122;5.404;2024-01-30T07:27:11;102633.22;;;7.33;100.00
71974;BME280;59840;52.122;5.404;2024-01-30T07:29:37;102632.31;;;7.40;100.00
71974;BME280;59840;52.122;5.404;2024-01-30T07:32:04;102629.97;;;7.46;100.00
71974;BME280;59840;52.122;5.404;2024-01-30T07:34:31;102632.78;;;7.44;100.00
71974;BME280;59840;52.122;5.404;2024-01-30T07:37:02;102637.22;;;7.44;100.00
71974;BME280;59840;52.122;5.404;2024-01-30T07:39:28;102642.13;;;7.47;100.00
71974;BME280;59840;52.122;5.404;2024-01-30T07:41:55;102649.81;;;7.48;100.00
71974;BME280;59840;52.122;5.404;2024-01-30T07:44:22;102635.50;;;7.51;100.00
71974;BME280;59840;52.122;5.404;2024-01-30T07:46:48;102642.69;;;7.57;100.00
71974;BME280;59840;52.122;5.404;2024-01-30T07:49:15;102641.06;;;7.56;100.00
71974;BME280;59840;52.122;5.404;2024-01-30T07:51:42;102648.56;;;7.59;100.00
71974;BME280;59840;52.122;5.404;2024-01-30T07:54:12;102655.53;;;7.66;100.00
71974;BME280;59840;52.122;5.404;2024-01-30T07:56:39;102649.75;;;7.71;100.00
71974;BME280;59840;52.122;5.404;2024-01-30T07:59:09;102655.44;;;7.74;100.00
71974;BME280;59840;52.122;5.404;2024-01-30T08:01:36;102653.09;;;7.80;100.00
71974;BME280;59840;52.122;5.404;2024-01-30T08:04:03;102661.63;;;7.82;100.00
71974;BME280;59840;52.122;5.404;2024-01-30T08:06:30;102665.16;;;7.89;100.00
71974;BME280;59840;52.122;5.404;2024-01-30T08:08:57;102661.00;;;7.94;100.00
71974;BME280;59840;52.122;5.404;2024-01-30T08:11:25;102661.50;;;8.04;100.00
71974;BME280;59840;52.122;5.404;2024-01-30T08:13:53;102660.25;;;8.15;100.00
71974;BME280;59840;52.122;5.404;2024-01-30T08:16:19;102655.88;;;8.22;100.00
71974;BME280;59840;52.122;5.404;2024-01-30T08:18:46;102658.34;;;8.24;100.00
71974;BME280;59840;52.122;5.404;2024-01-30T08:21:13;102650.53;;;8.30;100.00
71974;BME280;59840;52.122;5.404;2024-01-30T08:23:39;102645.06;;;8.32;100.00
71974;BME280;59840;52.122;5.404;2024-01-30T08:26:06;102653.41;;;8.35;100.00
71974;BME280;59840;52.122;5.404;2024-01-30T08:28:32;102653.50;;;8.42;100.00
71974;BME280;59840;52.122;5.404;2024-01-30T08:30:59;102658.84;;;8.49;100.00
71974;BME280;59840;52.122;5.404;2024-01-30T08:33:26;102663.75;;;8.52;100.00
71974;BME280;59840;52.122;5.404;2024-01-30T08:35:52;102663.56;;;8.53;100.00
71974;BME280;59840;52.122;5.404;2024-01-30T08:38:19;102649.28;;;8.62;100.00
71974;BME280;59840;52.122;5.404;2024-01-30T08:40:45;102651.56;;;8.65;100.00
71974;BME280;59840;52.122;5.404;2024-01-30T08:43:12;102644.47;;;8.66;100.00
71974;BME280;59840;52.122;5.404;2024-01-30T08:45:39;102648.97;;;8.72;100.00
71974;BME280;59840;52.122;5.404;2024-01-30T08:48:06;102652.66;;;8.78;100.00
71974;BME280;59840;52.122;5.404;2024-01-30T08:50:33;102653.81;;;8.90;100.00
71974;BME280;59840;52.122;5.404;2024-01-30T08:52:59;102652.06;;;8.97;100.00
71974;BME280;59840;52.122;5.404;2024-01-30T08:55:27;102646.41;;;9.00;100.00
71974;BME280;59840;52.122;5.404;2024-01-30T08:57:53;102654.41;;;9.13;100.00
71974;BME280;59840;52.122;5.404;2024-01-30T09:00:20;102666.19;;;9.17;100.00
71974;BME280;59840;52.122;5.404;2024-01-30T09:02:46;102668.06;;;9.23;100.00
71974;BME280;59840;52.122;5.404;2024-01-30T09:05:13;102663.88;;;9.29;100.00
71974;BME280;59840;52.122;5.404;2024-01-30T09:07:40;102655.47;;;9.47;100.00
71974;BME280;59840;52.122;5.404;2024-01-30T09:10:07;102663.47;;;9.60;100.00
71974;BME280;59840;52.122;5.404;2024-01-30T09:12:38;102654.44;;;9.75;100.00
71974;BME280;59840;52.122;5.404;2024-01-30T09:15:05;102653.69;;;9.88;100.00
71974;BME280;59840;52.122;5.404;2024-01-30T09:17:31;102661.66;;;9.95;100.00
71974;BME280;59840;52.122;5.404;2024-01-30T09:19:59;102663.31;;;10.02;100.00
71974;BME280;59840;52.122;5.404;2024-01-30T09:22:26;102674.06;;;10.07;100.00
71974;BME280;59840;52.122;5.404;2024-01-30T09:24:52;102670.03;;;10.12;100.00
71974;BME280;59840;52.122;5.404;2024-01-30T09:27:19;102671.06;;;10.17;100.00
71974;BME280;59840;52.122;5.404;2024-01-30T09:29:46;102676.13;;;10.12;100.00
71974;BME280;59840;52.122;5.404;2024-01-30T09:32:13;102676.31;;;10.11;100.00
71974;BME280;59840;52.122;5.404;2024-01-30T09:34:39;102677.13;;;10.11;100.00
71974;BME280;59840;52.122;5.404;2024-01-30T09:37:07;102676.94;;;10.13;100.00
71974;BME280;59840;52.122;5.404;2024-01-30T09:39:34;102685.25;;;10.09;100.00
71974;BME280;59840;52.122;5.404;2024-01-30T09:42:10;102677.94;;;10.12;100.00
71974;BME280;59840;52.122;5.404;2024-01-30T09:44:38;102686.88;;;10.11;100.00
71974;BME280;59840;52.122;5.404;2024-01-30T09:47:08;102692.56;;;10.14;100.00
71974;BME280;59840;52.122;5.404;2024-01-30T09:49:34;102695.00;;;10.16;100.00
71974;BME280;59840;52.122;5.404;2024-01-30T09:52:05;102696.66;;;10.17;100.00
71974;BME280;59840;52.122;5.404;2024-01-30T09:54:33;102692.00;;;10.19;100.00
71974;BME280;59840;52.122;5.404;2024-01-30T09:57:03;102694.25;;;10.22;100.00
71974;BME280;59840;52.122;5.404;2024-01-30T09:59:29;102689.81;;;10.22;100.00
71974;BME280;59840;52.122;5.404;2024-01-30T10:01:57;102698.75;;;10.28;100.00
71974;BME280;59840;52.122;5.404;2024-01-30T10:04:24;102705.69;;;10.35;100.00
71974;BME280;59840;52.122;5.404;2024-01-30T10:06:51;102696.34;;;10.33;100.00
71974;BME280;59840;52.122;5.404;2024-01-30T10:09:18;102706.91;;;10.33;100.00
71974;BME280;59840;52.122;5.404;2024-01-30T10:11:44;102698.38;;;10.31;100.00
71974;BME280;59840;52.122;5.404;2024-01-30T10:14:11;102693.72;;;10.33;100.00
71974;BME280;59840;52.122;5.404;2024-01-30T10:16:37;102695.16;;;10.35;100.00
71974;BME280;59840;52.122;5.404;2024-01-30T10:19:04;102696.59;;;10.38;100.00
71974;BME280;59840;52.122;5.404;2024-01-30T10:21:31;102700.66;;;10.47;100.00
71974;BME280;59840;52.122;5.404;2024-01-30T10:23:57;102703.72;;;10.51;100.00
71974;BME280;59840;52.122;5.404;2024-01-30T10:26:24;102703.75;;;10.57;100.00
71974;BME280;59840;52.122;5.404;2024-01-30T10:28:50;102700.31;;;10.63;100.00
71974;BME280;59840;52.122;5.404;2024-01-30T10:31:18;102693.22;;;10.70;100.00
71974;BME280;59840;52.122;5.404;2024-01-30T10:33:47;102696.06;;;10.75;100.00
71974;BME280;59840;52.122;5.404;2024-01-30T10:36:14;102704.81;;;10.83;100.00
71974;BME280;59840;52.122;5.404;2024-01-30T10:38:47;102711.34;;;10.93;100.00
71974;BME280;59840;52.122;5.404;2024-01-30T10:41:20;102697.34;;;11.06;100.00
71974;BME280;59840;52.122;5.404;2024-01-30T10:43:58;102687.97;;;11.10;100.00
71974;BME280;59840;52.122;5.404;2024-01-30T10:46:31;102700.59;;;11.08;100.00
71974;BME280;59840;52.122;5.404;2024-01-30T10:49:00;102707.91;;;11.06;100.00
71974;BME280;59840;52.122;5.404;2024-01-30T10:51:27;102709.94;;;11.04;100.00
71974;BME280;59840;52.122;5.404;2024-01-30T10:53:56;102711.16;;;11.01;100.00
71974;BME280;59840;52.122;5.404;2024-01-30T10:56:24;102717.03;;;10.97;100.00
71974;BME280;59840;52.122;5.404;2024-01-30T10:58:52;102706.47;;;10.97;100.00
71974;BME280;59840;52.122;5.404;2024-01-30T11:01:23;102707.31;;;11.04;100.00
71974;BME280;59840;52.122;5.404;2024-01-30T11:03:51;102714.81;;;11.14;100.00
71974;BME280;59840;52.122;5.404;2024-01-30T11:06:22;102708.13;;;11.18;100.00
71974;BME280;59840;52.122;5.404;2024-01-30T11:09:03;102712.78;;;11.22;100.00
71974;BME280;59840;52.122;5.404;2024-01-30T11:11:30;102720.94;;;11.27;100.00
71974;BME280;59840;52.122;5.404;2024-01-30T11:14:00;102720.13;;;11.33;100.00
71974;BME280;59840;52.122;5.404;2024-01-30T11:16:31;102712.00;;;11.41;100.00
71974;BME280;59840;52.122;5.404;2024-01-30T11:19:00;102722.16;;;11.45;100.00
71974;BME280;59840;52.122;5.404;2024-01-30T11:21:29;102723.16;;;11.43;100.00
71974;BME280;59840;52.122;5.404;2024-01-30T11:23:56;102714.22;;;11.45;100.00
71974;BME280;59840;52.122;5.404;2024-01-30T11:26:27;102717.09;;;11.43;100.00
71974;BME280;59840;52.122;5.404;2024-01-30T11:28:55;102716.28;;;11.43;100.00
71974;BME280;59840;52.122;5.404;2024-01-30T11:31:22;102720.75;;;11.42;100.00
71974;BME280;59840;52.122;5.404;2024-01-30T11:33:52;102726.63;;;11.37;100.00
71974;BME280;59840;52.122;5.404;2024-01-30T11:36:25;102728.47;;;11.30;100.00
71974;BME280;59840;52.122;5.404;2024-01-30T11:38:52;102732.72;;;11.25;100.00
71974;BME280;59840;52.122;5.404;2024-01-30T11:41:19;102742.25;;;11.13;100.00
71974;BME280;59840;52.122;5.404;2024-01-30T11:43:53;102736.38;;;11.04;100.00
71974;BME280;59840;52.122;5.404;2024-01-30T11:46:20;102747.72;;;10.98;100.00
71974;BME280;59840;52.122;5.404;2024-01-30T11:48:47;102741.59;;;10.91;100.00
71974;BME280;59840;52.122;5.404;2024-01-30T11:51:14;102752.56;;;10.88;100.00
71974;BME280;59840;52.122;5.404;2024-01-30T11:53:41;102756.22;;;10.87;100.00
71974;BME280;59840;52.122;5.404;2024-01-30T11:56:08;102747.47;;;10.80;100.00
71974;BME280;59840;52.122;5.404;2024-01-30T11:58:35;102761.25;;;10.75;100.00
71974;BME280;59840;52.122;5.404;2024-01-30T12:01:01;102755.38;;;10.73;100.00
71974;BME280;59840;52.122;5.404;2024-01-30T12:03:28;102748.06;;;10.75;100.00
71974;BME280;59840;52.122;5.404;2024-01-30T12:05:56;102758.41;;;10.77;100.00
71974;BME280;59840;52.122;5.404;2024-01-30T12:08:24;102754.97;;;10.76;100.00
71974;BME280;59840;52.122;5.404;2024-01-30T12:10:57;102761.47;;;10.73;100.00
71974;BME280;59840;52.122;5.404;2024-01-30T12:13:32;102755.38;;;10.73;100.00
71974;BME280;59840;52.122;5.404;2024-01-30T12:16:02;102764.72;;;10.69;100.00
71974;BME280;59840;52.122;5.404;2024-01-30T12:18:29;102765.69;;;10.61;100.00
71974;BME280;59840;52.122;5.404;2024-01-30T12:20:59;102763.44;;;10.58;100.00
71974;BME280;59840;52.122;5.404;2024-01-30T12:23:28;102774.81;;;10.59;100.00
71974;BME280;59840;52.122;5.404;2024-01-30T12:25:54;102773.16;;;10.51;100.00
71974;BME280;59840;52.122;5.404;2024-01-30T12:28:21;102785.28;;;10.39;100.00
71974;BME280;59840;52.122;5.404;2024-01-30T12:30:48;102798.59;;;10.24;100.00
71974;BME280;59840;52.122;5.404;2024-01-30T12:33:17;102796.44;;;10.13;100.00
71974;BME280;59840;52.122;5.404;2024-01-30T12:35:48;102812.03;;;10.08;100.00
71974;BME280;59840;52.122;5.404;2024-01-30T12:38:27;102805.50;;;9.97;100.00
71974;BME280;59840;52.122;5.404;2024-01-30T12:40:54;102814.59;;;9.95;100.00
71974;BME280;59840;52.122;5.404;2024-01-30T12:43:23;102809.72;;;9.92;100.00
71974;BME280;59840;52.122;5.404;2024-01-30T12:46:03;102795.31;;;9.94;100.00
71974;BME280;59840;52.122;5.404;2024-01-30T12:48:30;102809.31;;;9.95;100.00
71974;BME280;59840;52.122;5.404;2024-01-30T12:50:56;102806.50;;;9.96;100.00
71974;BME280;59840;52.122;5.404;2024-01-30T12:53:23;102803.03;;;9.96;100.00
71974;BME280;59840;52.122;5.404;2024-01-30T12:55:50;102808.94;;;9.98;100.00
71974;BME280;59840;52.122;5.404;2024-01-30T12:58:17;102805.94;;;10.01;100.00
71974;BME280;59840;52.122;5.404;2024-01-30T13:00:43;102798.81;;;10.01;100.00
71974;BME280;59840;52.122;5.404;2024-01-30T13:03:11;102808.56;;;10.01;100.00
71974;BME280;59840;52.122;5.404;2024-01-30T13:05:38;102807.75;;;10.00;100.00
71974;BME280;59840;52.122;5.404;2024-01-30T13:08:05;102800.47;;;10.02;100.00
71974;BME280;59840;52.122;5.404;2024-01-30T13:10:31;102804.47;;;9.98;100.00
71974;BME280;59840;52.122;5.404;2024-01-30T13:12:58;102815.41;;;9.95;100.00
71974;BME280;59840;52.122;5.404;2024-01-30T13:15:24;102803.22;;;9.94;100.00